createdAt,value
2019-03-08T00:02:07.049Z,74.19
2019-03-08T00:07:10.471Z,73.92
2019-03-08T00:12:13.977Z,74.98
2019-03-08T00:17:17.417Z,79.82
2019-03-08T00:22:20.847Z,79.13
2019-03-08T00:27:24.256Z,80.34
2019-03-08T00:32:27.690Z,80.97
2019-03-08T00:37:31.134Z,81.99
2019-03-08T00:42:35.079Z,82.45
2019-03-08T00:47:38.667Z,83.59
2019-03-08T00:52:42.092Z,81.79
2019-03-08T00:57:47.070Z,81.57
2019-03-08T01:02:50.530Z,82.08
2019-03-08T01:07:53.950Z,82.43
2019-03-08T01:12:57.373Z,82.54
2019-03-08T01:18:00.887Z,83.16
2019-03-08T01:23:04.607Z,82.96
2019-03-08T01:28:12.458Z,84.58
2019-03-08T01:33:16.541Z,86.25
2019-03-08T01:38:20.782Z,90.91
2019-03-08T01:43:24.231Z,92.63
2019-03-08T01:48:27.842Z,95.51
2019-03-08T01:53:31.314Z,97.07
2019-03-08T01:58:34.751Z,100.00
2019-03-08T02:03:38.394Z,100.00
2019-03-08T02:08:41.894Z,100.00
2019-03-08T02:13:45.439Z,100.00
2019-03-08T02:18:48.865Z,100.00
2019-03-08T02:23:52.452Z,100.00
2019-03-08T02:28:55.969Z,100.00
2019-03-08T02:33:59.416Z,100.00
2019-03-08T02:39:03.017Z,100.00
2019-03-08T02:44:06.536Z,100.00
2019-03-08T02:49:10.040Z,100.00
2019-03-08T02:54:13.459Z,100.00
2019-03-08T02:59:17.071Z,100.00
2019-03-08T03:04:20.521Z,100.00
2019-03-08T03:09:23.940Z,100.00
2019-03-08T03:14:27.406Z,100.00
2019-03-08T03:19:30.827Z,100.00
2019-03-08T03:24:34.266Z,100.00
2019-03-08T03:29:37.700Z,100.00
2019-03-08T03:34:41.207Z,100.00
2019-03-08T03:39:44.654Z,100.00
2019-03-08T03:44:48.094Z,100.00
2019-03-08T03:49:51.515Z,100.00
2019-03-08T03:54:54.959Z,100.00
2019-03-08T03:59:58.390Z,100.00
2019-03-08T04:05:01.817Z,100.00
2019-03-08T04:10:20.454Z,100.00
2019-03-08T04:15:23.886Z,100.00
2019-03-08T04:20:27.319Z,100.00
2019-03-08T04:25:30.783Z,100.00
2019-03-08T04:30:34.230Z,100.00
2019-03-08T04:35:37.665Z,99.60
2019-03-08T04:40:41.150Z,99.71
2019-03-08T04:45:44.580Z,99.64
2019-03-08T04:50:48.060Z,100.00
2019-03-08T04:55:51.554Z,99.13
2019-03-08T05:00:54.979Z,98.19
2019-03-08T05:05:58.434Z,97.69
2019-03-08T05:11:01.829Z,98.51
2019-03-08T05:16:05.270Z,97.15
2019-03-08T05:21:08.695Z,96.53
2019-03-08T05:26:12.186Z,96.83
2019-03-08T05:31:15.856Z,95.97
2019-03-08T05:36:19.308Z,95.32
2019-03-08T05:41:22.743Z,94.85
2019-03-08T05:46:26.154Z,94.25
2019-03-08T05:51:29.589Z,93.63
2019-03-08T05:56:33.026Z,93.33
2019-03-08T06:01:39.599Z,91.77
2019-03-08T06:06:43.310Z,92.34
2019-03-08T06:11:46.749Z,93.17
2019-03-08T06:16:50.200Z,93.31
2019-03-08T06:21:53.655Z,93.50
2019-03-08T06:26:57.063Z,92.74
2019-03-08T06:32:00.683Z,93.48
2019-03-08T06:37:04.107Z,92.13
2019-03-08T06:42:07.621Z,92.06
2019-03-08T06:47:11.055Z,91.21
2019-03-08T06:52:14.479Z,92.62
2019-03-08T06:57:17.919Z,93.25
2019-03-08T07:02:22.114Z,92.96
2019-03-08T07:07:25.566Z,92.75
2019-03-08T07:12:29.107Z,92.61
2019-03-08T07:17:32.638Z,91.74
2019-03-08T07:22:46.925Z,93.31
2019-03-08T07:27:52.016Z,92.87
2019-03-08T07:32:59.526Z,93.34
2019-03-08T07:38:10.553Z,93.63
2019-03-08T07:48:47.783Z,93.76
2019-03-08T07:53:52.871Z,93.24
2019-03-08T07:58:57.931Z,91.51
2019-03-08T08:09:25.477Z,90.17
2019-03-08T08:14:40.008Z,89.81
2019-03-08T08:19:48.042Z,89.23
2019-03-08T08:24:55.792Z,88.80
2019-03-08T08:30:12.624Z,89.85
2019-03-08T08:35:17.707Z,89.62
2019-03-08T08:40:22.820Z,89.87
2019-03-08T08:50:53.122Z,88.67
2019-03-08T08:56:14.239Z,92.12
2019-03-08T09:01:28.159Z,100.00
2019-03-08T09:06:35.802Z,100.00
2019-03-08T09:11:45.884Z,100.00
2019-03-08T09:16:47.714Z,100.00
2019-03-08T09:21:58.671Z,100.00
2019-03-08T09:27:12.542Z,100.00
2019-03-08T09:32:17.604Z,100.00
2019-03-08T09:37:34.661Z,100.00
2019-03-08T09:42:45.480Z,100.00
2019-03-08T09:53:07.141Z,100.00
2019-03-08T09:58:21.025Z,97.33
2019-03-08T10:03:26.102Z,93.33
2019-03-08T10:08:43.120Z,91.14
2019-03-08T10:13:51.277Z,89.02
2019-03-08T10:19:14.575Z,88.19
2019-03-08T10:24:22.390Z,84.83
2019-03-08T10:29:30.162Z,79.69
2019-03-08T10:34:41.110Z,79.83
2019-03-08T10:45:02.412Z,72.48
2019-03-08T10:50:13.108Z,71.77
2019-03-08T10:55:34.442Z,70.06
2019-03-08T11:00:39.538Z,65.31
2019-03-08T11:06:00.731Z,62.49
2019-03-08T11:11:08.491Z,61.65
2019-03-08T11:16:13.961Z,60.44
2019-03-08T11:27:13.177Z,58.96
2019-03-08T11:32:36.268Z,54.88
2019-03-08T11:37:43.794Z,54.49
2019-03-08T11:42:54.959Z,52.17
2019-03-08T11:48:17.115Z,50.76
2019-03-08T11:53:24.849Z,55.44
2019-03-08T11:58:44.833Z,60.55
2019-03-08T12:03:52.784Z,64.15
2019-03-08T12:09:06.359Z,62.65
2019-03-08T12:14:20.732Z,61.42
2019-03-08T12:19:26.120Z,63.32
2019-03-08T12:24:31.213Z,62.28
2019-03-08T12:29:36.277Z,63.00
2019-03-08T12:34:44.230Z,64.55
2019-03-08T12:39:51.862Z,65.52
2019-03-08T12:45:26.666Z,65.42
2019-03-08T12:50:59.352Z,67.13
2019-03-08T13:08:01.633Z,77.21
2019-03-08T13:13:05.317Z,81.01
2019-03-08T13:18:08.815Z,76.80
2019-03-08T13:23:12.271Z,71.13
2019-03-08T13:28:15.761Z,71.84
2019-03-08T13:39:18.339Z,73.77
2019-03-08T13:44:59.889Z,74.09
2019-03-08T13:56:30.600Z,73.61
2019-03-08T14:01:34.154Z,74.96
2019-03-08T14:06:37.611Z,69.97
2019-03-08T14:11:41.069Z,71.00
2019-03-08T14:16:44.458Z,72.95
2019-03-08T14:21:47.899Z,73.16
2019-03-08T14:26:51.322Z,69.68
2019-03-08T14:31:56.568Z,65.26
2019-03-08T14:37:00.005Z,63.38
2019-03-08T14:42:15.669Z,62.52
2019-03-08T14:47:24.458Z,64.28
2019-03-08T14:52:32.170Z,68.51
2019-03-08T14:57:35.531Z,68.20
2019-03-08T15:02:39.205Z,70.28
2019-03-08T15:07:44.172Z,65.59
2019-03-08T15:12:49.484Z,62.29
2019-03-08T15:17:53.513Z,63.58
2019-03-08T15:34:10.409Z,67.07
2019-03-08T15:39:13.821Z,67.45
2019-03-08T15:44:17.258Z,67.66
2019-03-08T15:49:20.695Z,67.28
2019-03-08T15:54:24.161Z,69.35
2019-03-08T15:59:27.784Z,68.92
2019-03-08T16:04:31.244Z,70.03
2019-03-08T16:09:36.309Z,68.91
2019-03-08T16:14:39.822Z,69.32
2019-03-08T16:19:43.250Z,70.23
2019-03-08T16:24:46.693Z,70.82
2019-03-08T16:29:50.244Z,71.63
2019-03-08T16:34:53.439Z,74.10
2019-03-08T16:45:33.437Z,75.25
2019-03-08T16:50:50.409Z,76.56
2019-03-08T16:56:03.113Z,77.37
2019-03-08T17:01:10.683Z,79.40
2019-03-08T17:06:31.079Z,80.40
2019-03-08T17:11:36.155Z,81.59
2019-03-08T17:16:50.247Z,82.30
2019-03-08T17:22:13.598Z,83.30
2019-03-08T17:27:33.403Z,84.22
2019-03-08T17:32:38.514Z,83.96
2019-03-08T17:37:49.543Z,85.31
2019-03-08T17:42:54.618Z,85.95
2019-03-08T17:48:02.389Z,86.54
2019-03-08T17:53:07.452Z,87.16
2019-03-08T17:58:30.691Z,86.95
2019-03-08T18:03:38.809Z,87.72
2019-03-08T18:08:52.938Z,87.42
2019-03-08T18:13:58.009Z,87.91
2019-03-08T18:19:03.076Z,85.41
2019-03-08T18:24:10.985Z,85.00
2019-03-08T18:29:17.566Z,83.26
2019-03-08T18:34:25.216Z,84.78
2019-03-08T18:39:42.173Z,83.92
2019-03-08T18:44:50.833Z,83.84
2019-03-08T18:49:58.671Z,83.86
2019-03-08T18:55:22.506Z,83.49
2019-03-08T19:22:43.297Z,84.75
2019-03-08T19:33:54.893Z,83.01
2019-03-08T19:39:15.075Z,82.49
2019-03-08T19:44:31.920Z,82.32
2019-03-08T19:49:53.929Z,84.34
2019-03-08T19:55:02.695Z,85.01
2019-03-08T20:00:25.620Z,83.26
2019-03-08T20:05:46.674Z,79.40
2019-03-08T20:27:54.269Z,77.36
2019-03-08T20:33:10.481Z,85.35
2019-03-08T20:38:33.733Z,86.93
2019-03-08T20:43:41.547Z,87.65
2019-03-08T20:48:45.025Z,87.57
2019-03-08T20:53:48.834Z,88.30
2019-03-08T20:58:52.359Z,88.86
2019-03-08T21:03:57.941Z,90.81
2019-03-08T21:09:01.560Z,91.86
2019-03-08T21:14:05.378Z,90.60
2019-03-08T21:19:08.824Z,91.69
2019-03-08T21:24:15.299Z,92.83
2019-03-08T21:29:20.305Z,94.56
2019-03-08T21:34:23.725Z,95.34
2019-03-08T21:39:27.173Z,94.59
2019-03-08T21:44:30.606Z,95.64
2019-03-08T21:49:34.113Z,95.14
2019-03-08T21:54:38.551Z,94.50
2019-03-08T21:59:41.961Z,94.44
2019-03-08T22:04:47.059Z,95.61
2019-03-08T22:09:52.390Z,94.76
2019-03-08T22:14:57.655Z,94.10
2019-03-08T22:20:04.722Z,92.67
2019-03-08T22:25:08.921Z,93.27
2019-03-08T22:30:17.632Z,92.19
2019-03-08T22:35:21.449Z,92.59
2019-03-08T22:40:25.170Z,90.97
2019-03-08T22:45:28.731Z,90.80
2019-03-08T22:50:33.213Z,90.81
2019-03-08T22:55:36.567Z,90.72
2019-03-08T23:00:53.971Z,90.67
2019-03-08T23:05:57.419Z,89.33
2019-03-08T23:11:01.076Z,90.28
2019-03-08T23:16:04.521Z,88.67
2019-03-08T23:21:07.950Z,89.53
2019-03-08T23:26:11.416Z,89.07
2019-03-08T23:31:25.112Z,89.33
2019-03-08T23:36:30.212Z,87.89
2019-03-08T23:41:33.628Z,87.76
2019-03-08T23:46:37.073Z,87.81
2019-03-08T23:51:40.516Z,88.20
2019-03-08T23:56:43.945Z,88.71
